createdAt,value
2023-01-13T00:00:58.805Z,100512.31
2023-01-13T00:03:25.335Z,100489.88
2023-01-13T00:05:51.683Z,100499.97
2023-01-13T00:08:18.047Z,100488.72
2023-01-13T00:10:48.092Z,100488.69
2023-01-13T00:13:14.811Z,100483.59
2023-01-13T00:15:41.288Z,100488.38
2023-01-13T00:18:07.743Z,100484.31
2023-01-13T00:20:34.183Z,100487.75
2023-01-13T00:23:01.321Z,100478.59
2023-01-13T00:25:27.685Z,100485.81
2023-01-13T00:27:54.254Z,100486.84
2023-01-13T00:30:20.617Z,100489.75
2023-01-13T00:32:47.019Z,100493.47
2023-01-13T00:35:13.389Z,100498.78
2023-01-13T00:37:41.032Z,100509.97
2023-01-13T00:40:08.386Z,100508.66
2023-01-13T00:42:53.402Z,100497.41
2023-01-13T00:45:19.758Z,100494.44
2023-01-13T00:47:46.146Z,100487.56
2023-01-13T00:50:12.518Z,100486.19
2023-01-13T00:52:41.167Z,100469.34
2023-01-13T00:55:08.767Z,100476.78
2023-01-13T00:57:35.177Z,100465.91
2023-01-13T01:00:01.736Z,100460.38
2023-01-13T01:02:28.204Z,100453.97
2023-01-13T01:04:54.736Z,100451.78
2023-01-13T01:07:21.116Z,100455.00
2023-01-13T01:09:47.480Z,100463.00
2023-01-13T01:12:14.239Z,100447.53
2023-01-13T01:14:40.601Z,100454.47
2023-01-13T01:17:06.936Z,100454.97
2023-01-13T01:19:37.314Z,100443.50
2023-01-13T01:22:03.745Z,100448.03
2023-01-13T01:24:30.150Z,100448.06
2023-01-13T01:26:56.490Z,100444.66
2023-01-13T01:29:22.880Z,100440.41
2023-01-13T01:31:49.363Z,100429.19
2023-01-13T01:34:15.734Z,100442.03
2023-01-13T01:36:42.168Z,100439.38
2023-01-13T01:39:09.876Z,100442.81
2023-01-13T01:41:37.224Z,100457.75
2023-01-13T01:44:41.388Z,100468.97
2023-01-13T01:47:11.291Z,100477.19
2023-01-13T01:49:39.512Z,100475.34
2023-01-13T01:52:14.537Z,100474.84
2023-01-13T01:54:50.682Z,100491.13
2023-01-13T01:57:28.573Z,100479.41
2023-01-13T01:59:55.628Z,100481.78
2023-01-13T02:02:22.587Z,100479.97
2023-01-13T02:04:53.940Z,100478.09
2023-01-13T02:07:27.746Z,100464.75
2023-01-13T02:09:56.359Z,100458.88
2023-01-13T02:12:31.966Z,100452.47
2023-01-13T02:15:07.318Z,100459.38
2023-01-13T02:17:48.920Z,100470.28
2023-01-13T02:20:35.344Z,100458.81
2023-01-13T02:23:51.950Z,100463.03
2023-01-13T02:26:55.194Z,100462.53
2023-01-13T02:29:58.661Z,100448.38
2023-01-13T02:33:09.843Z,100449.41
2023-01-13T02:35:42.000Z,100446.72
2023-01-13T02:38:13.135Z,100440.09
2023-01-13T02:40:45.251Z,100421.22
2023-01-13T02:43:41.487Z,100423.38
2023-01-13T02:46:15.039Z,100414.56
2023-01-13T02:48:45.604Z,100414.56
2023-01-13T02:51:23.249Z,100417.78
2023-01-13T02:53:59.437Z,100423.88
2023-01-13T02:56:26.723Z,100419.88
2023-01-13T02:58:55.771Z,100419.88
2023-01-13T03:01:22.620Z,100412.16
2023-01-13T03:03:50.097Z,100408.66
2023-01-13T03:06:16.442Z,100399.03
2023-01-13T03:09:05.251Z,100412.09
2023-01-13T03:11:43.884Z,100419.34
2023-01-13T03:14:35.783Z,100415.38
2023-01-13T03:17:16.644Z,100412.94
2023-01-13T03:20:03.345Z,100409.72
2023-01-13T03:22:44.889Z,100406.50
2023-01-13T03:25:36.591Z,100411.53
2023-01-13T03:28:08.653Z,100405.66
2023-01-13T03:30:47.959Z,100404.31
2023-01-13T03:33:57.870Z,100398.44
2023-01-13T03:36:28.052Z,100406.09
2023-01-13T03:38:58.925Z,100415.19
2023-01-13T03:41:57.232Z,100419.75
2023-01-13T03:44:33.795Z,100431.53
2023-01-13T03:47:15.304Z,100430.31
2023-01-13T03:50:02.313Z,100416.66
2023-01-13T03:52:33.158Z,100412.88
2023-01-13T03:55:22.650Z,100404.88
2023-01-13T03:57:55.573Z,100410.53
2023-01-13T04:00:37.499Z,100407.31
2023-01-13T04:03:12.025Z,100403.66
2023-01-13T04:05:47.410Z,100418.56
2023-01-13T04:08:25.870Z,100403.59
2023-01-13T04:11:03.518Z,100398.00
2023-01-13T04:13:36.619Z,100386.72
2023-01-13T04:16:06.572Z,100397.91
2023-01-13T04:18:33.179Z,100396.81
2023-01-13T04:21:01.814Z,100400.25
2023-01-13T04:23:29.051Z,100423.47
2023-01-13T04:25:56.162Z,100419.63
2023-01-13T04:28:23.528Z,100419.13
2023-01-13T04:30:50.066Z,100412.19
2023-01-13T04:33:18.101Z,100412.19
2023-01-13T04:35:46.180Z,100422.00
2023-01-13T04:38:18.195Z,100430.00
2023-01-13T04:40:45.203Z,100416.69
2023-01-13T04:43:12.399Z,100426.28
2023-01-13T04:45:39.042Z,100412.41
2023-01-13T04:48:05.879Z,100415.91
2023-01-13T04:50:32.457Z,100411.06
2023-01-13T04:53:00.439Z,100404.59
2023-01-13T04:55:27.655Z,100398.78
2023-01-13T04:57:54.137Z,100407.50
2023-01-13T05:00:22.771Z,100400.81
2023-01-13T05:02:50.848Z,100404.25
2023-01-13T05:05:17.978Z,100404.53
2023-01-13T05:07:44.549Z,100410.22
2023-01-13T05:10:11.651Z,100404.63
2023-01-13T05:12:56.711Z,100391.06
2023-01-13T05:15:41.860Z,100394.53
2023-01-13T05:18:08.688Z,100381.72
2023-01-13T05:20:35.203Z,100385.75
2023-01-13T05:23:20.420Z,100388.44
2023-01-13T05:25:48.182Z,100385.75
2023-01-13T05:28:15.123Z,100381.22
2023-01-13T05:30:44.051Z,100383.88
2023-01-13T05:33:11.762Z,100394.53
2023-01-13T05:35:39.565Z,100375.88
2023-01-13T05:38:06.007Z,100382.25
2023-01-13T05:40:51.377Z,100387.03
2023-01-13T05:43:20.062Z,100379.38
2023-01-13T05:45:59.719Z,100378.19
2023-01-13T05:48:33.018Z,100409.66
2023-01-13T05:51:00.393Z,100407.25
2023-01-13T05:53:27.176Z,100400.34
2023-01-13T05:55:54.383Z,100396.00
2023-01-13T05:58:23.205Z,100413.56
2023-01-13T06:00:50.485Z,100400.69
2023-01-13T06:03:20.079Z,100400.69
2023-01-13T06:05:47.562Z,100407.06
2023-01-13T06:08:14.221Z,100400.38
2023-01-13T06:10:40.646Z,100392.09
2023-01-13T06:13:07.017Z,100403.31
2023-01-13T06:15:33.395Z,100395.13
2023-01-13T06:18:03.160Z,100398.03
2023-01-13T06:20:29.610Z,100399.91
2023-01-13T06:22:56.095Z,100415.81
2023-01-13T06:25:47.095Z,100410.28
2023-01-13T06:28:13.661Z,100405.81
2023-01-13T06:30:45.526Z,100407.13
2023-01-13T06:33:20.276Z,100414.34
2023-01-13T06:35:53.328Z,100404.50
2023-01-13T06:38:23.669Z,100401.31
2023-01-13T06:40:50.228Z,100419.38
2023-01-13T06:43:17.392Z,100426.66
2023-01-13T06:45:50.928Z,100426.97
2023-01-13T06:48:18.556Z,100421.66
2023-01-13T06:50:45.189Z,100420.09
2023-01-13T06:53:12.279Z,100428.59
2023-01-13T06:55:38.886Z,100424.38
2023-01-13T06:58:05.660Z,100433.16
2023-01-13T07:00:37.982Z,100434.53
2023-01-13T07:03:10.415Z,100433.50
2023-01-13T07:05:37.345Z,100434.78
2023-01-13T07:08:04.193Z,100447.00
2023-01-13T07:10:31.572Z,100434.75
2023-01-13T07:13:19.064Z,100444.09
2023-01-13T07:16:00.583Z,100447.03
2023-01-13T07:18:31.400Z,100449.97
2023-01-13T07:21:00.751Z,100449.47
2023-01-13T07:23:29.303Z,100448.44
2023-01-13T07:25:59.558Z,100442.63
2023-01-13T07:28:27.491Z,100459.91
2023-01-13T07:30:54.659Z,100464.97
2023-01-13T07:33:21.583Z,100474.59
2023-01-13T07:35:48.904Z,100444.50
2023-01-13T07:38:15.768Z,100448.03
2023-01-13T07:40:42.113Z,100460.28
2023-01-13T07:43:30.849Z,100454.63
2023-01-13T07:46:05.994Z,100458.34
2023-01-13T07:48:34.731Z,100454.38
2023-01-13T07:51:06.233Z,100464.56
2023-01-13T07:53:33.580Z,100461.13
2023-01-13T07:56:01.040Z,100457.59
2023-01-13T07:58:28.630Z,100476.03
2023-01-13T08:00:55.914Z,100458.69
2023-01-13T08:03:23.149Z,100477.34
2023-01-13T08:05:50.439Z,100467.28
2023-01-13T08:08:17.050Z,100474.72
2023-01-13T08:10:43.616Z,100463.81
2023-01-13T08:13:18.096Z,100457.91
2023-01-13T08:15:45.530Z,100465.13
2023-01-13T08:18:12.593Z,100456.09
2023-01-13T08:20:38.950Z,100477.72
2023-01-13T08:23:07.313Z,100467.06
2023-01-13T08:25:34.111Z,100477.97
2023-01-13T08:28:00.524Z,100473.47
2023-01-13T08:30:27.904Z,100490.28
2023-01-13T08:32:54.655Z,100485.19
2023-01-13T08:35:21.821Z,100480.97
2023-01-13T08:37:48.728Z,100488.19
2023-01-13T08:40:16.928Z,100493.75
2023-01-13T08:42:43.739Z,100511.84
2023-01-13T08:45:10.982Z,100504.41
2023-01-13T08:47:37.418Z,100495.34
2023-01-13T08:50:04.522Z,100509.72
2023-01-13T08:52:30.991Z,100510.22
2023-01-13T08:54:57.345Z,100520.59
2023-01-13T08:57:23.778Z,100537.06
2023-01-13T08:59:50.260Z,100547.47
2023-01-13T09:02:21.084Z,100537.56
2023-01-13T09:04:47.762Z,100539.94
2023-01-13T09:07:15.002Z,100551.91
2023-01-13T09:09:41.467Z,100553.81
2023-01-13T09:12:30.725Z,100550.13
2023-01-13T09:14:57.539Z,100553.00
2023-01-13T09:17:23.981Z,100554.31
2023-01-13T09:19:50.341Z,100550.31
2023-01-13T09:22:19.062Z,100571.09
2023-01-13T09:24:46.340Z,100562.06
2023-01-13T09:27:14.764Z,100561.75
2023-01-13T09:29:41.445Z,100566.28
2023-01-13T09:32:11.233Z,100568.16
2023-01-13T09:34:56.151Z,100569.72
2023-01-13T09:37:22.683Z,100560.41
2023-01-13T09:39:49.138Z,100562.25
2023-01-13T09:42:40.768Z,100560.91
2023-01-13T09:45:07.368Z,100568.97
2023-01-13T09:47:43.506Z,100574.31
2023-01-13T09:50:44.854Z,100582.88
2023-01-13T09:53:21.108Z,100584.75
2023-01-13T09:55:47.602Z,100579.72
2023-01-13T09:58:18.637Z,100583.50
2023-01-13T10:01:00.163Z,100579.25
2023-01-13T10:03:29.864Z,100587.81
2023-01-13T10:06:10.758Z,100576.91
2023-01-13T10:08:42.718Z,100583.03
2023-01-13T10:11:39.803Z,100589.72
2023-01-13T10:14:24.012Z,100603.88
2023-01-13T10:16:54.733Z,100607.59
2023-01-13T10:19:29.455Z,100603.31
2023-01-13T10:22:34.590Z,100606.53
2023-01-13T10:25:06.941Z,100608.94
2023-01-13T10:27:37.174Z,100616.16
2023-01-13T10:30:31.159Z,100611.91
2023-01-13T10:33:09.841Z,100630.06
2023-01-13T10:35:54.945Z,100624.22
2023-01-13T10:38:43.465Z,100621.56
2023-01-13T10:41:15.750Z,100629.06
2023-01-13T10:43:43.285Z,100641.88
2023-01-13T10:46:18.390Z,100630.16
2023-01-13T10:49:21.150Z,100637.38
2023-01-13T10:51:47.917Z,100636.53
2023-01-13T10:54:23.424Z,100644.53
2023-01-13T10:57:10.495Z,100640.03
2023-01-13T10:59:36.868Z,100648.31
2023-01-13T11:02:29.259Z,100656.31
2023-01-13T11:04:55.787Z,100651.56
2023-01-13T11:07:42.156Z,100664.13
2023-01-13T11:10:23.627Z,100662.81
2023-01-13T11:12:59.251Z,100664.47
2023-01-13T11:15:39.820Z,100669.31
2023-01-13T11:18:37.722Z,100674.13
2023-01-13T11:21:17.840Z,100666.69
2023-01-13T11:23:52.192Z,100666.69
2023-01-13T11:26:27.574Z,100670.16
2023-01-13T11:29:14.149Z,100673.63
2023-01-13T11:31:48.107Z,100671.25
2023-01-13T11:34:36.677Z,100665.19
2023-01-13T11:37:14.537Z,100671.66
2023-01-13T11:39:56.835Z,100686.09
2023-01-13T11:42:31.193Z,100678.63
2023-01-13T11:45:17.311Z,100692.84
2023-01-13T11:47:47.133Z,100692.88
2023-01-13T11:50:26.177Z,100687.28
2023-01-13T11:53:15.966Z,100686.19
2023-01-13T11:56:08.129Z,100710.00
2023-01-13T11:58:51.079Z,100700.41
2023-01-13T12:01:31.370Z,100717.78
2023-01-13T12:04:22.679Z,100716.97
2023-01-13T12:07:27.603Z,100708.72
2023-01-13T12:10:03.754Z,100729.81
2023-01-13T12:13:00.142Z,100715.41
2023-01-13T12:15:35.941Z,100720.47
2023-01-13T12:18:18.023Z,100715.13
2023-01-13T12:21:00.882Z,100736.72
2023-01-13T12:23:32.387Z,100737.53
2023-01-13T12:26:06.342Z,100725.53
2023-01-13T12:28:44.655Z,100736.75
2023-01-13T12:31:12.592Z,100753.34
2023-01-13T12:34:36.265Z,100741.06
2023-01-13T12:37:21.269Z,100749.63
2023-01-13T12:39:58.653Z,100746.94
2023-01-13T12:43:05.873Z,100742.94
2023-01-13T12:45:33.659Z,100764.38
2023-01-13T12:48:00.854Z,100751.81
2023-01-13T12:50:27.232Z,100751.56
2023-01-13T12:53:21.238Z,100758.50
2023-01-13T12:55:53.666Z,100751.59
2023-01-13T12:58:29.597Z,100765.53
2023-01-13T13:01:10.797Z,100768.25
2023-01-13T13:03:37.648Z,100777.06
2023-01-13T13:06:24.000Z,100781.09
2023-01-13T13:09:03.132Z,100790.16
2023-01-13T13:11:56.418Z,100790.66
2023-01-13T13:14:38.088Z,100788.75
2023-01-13T13:17:25.420Z,100781.56
2023-01-13T13:19:52.138Z,100807.75
2023-01-13T13:22:20.990Z,100806.19
2023-01-13T13:24:57.404Z,100802.47
2023-01-13T13:27:42.625Z,100815.56
2023-01-13T13:30:27.441Z,100827.63
2023-01-13T13:33:22.895Z,100824.44
2023-01-13T13:36:21.893Z,100830.09
2023-01-13T13:39:23.635Z,100827.97
2023-01-13T13:42:12.497Z,100816.47
2023-01-13T13:45:01.326Z,100831.94
2023-01-13T13:47:36.118Z,100826.38
2023-01-13T13:50:08.857Z,100841.59
2023-01-13T13:52:43.181Z,100843.69
2023-01-13T13:55:15.033Z,100854.34
2023-01-13T13:57:46.765Z,100858.28
2023-01-13T14:00:18.046Z,100866.06
2023-01-13T14:03:06.416Z,100874.09
2023-01-13T14:05:37.203Z,100879.44
2023-01-13T14:08:12.905Z,100868.19
2023-01-13T14:10:43.378Z,100873.53
2023-01-13T14:13:36.314Z,100889.56
2023-01-13T14:16:10.692Z,100883.66
2023-01-13T14:18:45.471Z,100899.69
2023-01-13T14:21:19.476Z,100898.91
2023-01-13T14:24:10.458Z,100916.22
2023-01-13T14:26:36.899Z,100908.47
2023-01-13T14:29:03.729Z,100918.09
2023-01-13T14:31:31.485Z,100926.59
2023-01-13T14:34:02.766Z,100930.34
2023-01-13T14:36:51.148Z,100934.56
2023-01-13T14:39:17.790Z,100946.63
2023-01-13T14:41:45.439Z,100938.06
2023-01-13T14:44:20.678Z,100943.09
2023-01-13T14:46:47.301Z,100946.81
2023-01-13T14:49:24.463Z,100953.22
2023-01-13T14:51:51.491Z,100954.28
2023-01-13T14:54:45.222Z,100948.09
2023-01-13T14:57:25.229Z,100976.38
2023-01-13T15:00:13.230Z,100950.75
2023-01-13T15:02:49.863Z,100977.94
2023-01-13T15:05:19.281Z,100994.44
2023-01-13T15:07:54.477Z,100995.84
2023-01-13T15:11:07.163Z,101000.13
2023-01-13T15:13:43.686Z,101001.19
2023-01-13T15:16:25.175Z,101013.41
2023-01-13T15:18:52.365Z,101015.00
2023-01-13T15:21:19.528Z,101020.59
2023-01-13T15:23:47.272Z,101026.00
2023-01-13T15:26:24.522Z,101035.31
2023-01-13T15:28:51.993Z,101038.78
2023-01-13T15:31:18.874Z,101045.13
2023-01-13T15:33:45.360Z,101041.91
2023-01-13T15:36:33.449Z,101049.81
2023-01-13T15:39:01.062Z,101056.78
2023-01-13T15:41:46.745Z,101069.91
2023-01-13T15:44:33.530Z,101074.59
2023-01-13T15:47:04.273Z,101080.19
2023-01-13T15:49:42.432Z,101076.22
2023-01-13T15:52:22.368Z,101086.59
2023-01-13T15:54:49.644Z,101085.69
2023-01-13T15:57:23.636Z,101095.56
2023-01-13T15:59:51.728Z,101105.03
2023-01-13T16:02:22.568Z,101097.81
2023-01-13T16:04:51.296Z,101101.63
2023-01-13T16:07:18.952Z,101115.72
2023-01-13T16:09:45.689Z,101120.16
2023-01-13T16:12:13.316Z,101119.69
2023-01-13T16:14:39.894Z,101120.47
2023-01-13T16:17:24.860Z,101126.28
2023-01-13T16:19:51.949Z,101137.53
2023-01-13T16:22:18.723Z,101141.59
2023-01-13T16:24:45.335Z,101145.88
2023-01-13T16:27:23.664Z,101148.88
2023-01-13T16:29:51.550Z,101153.66
2023-01-13T16:32:19.586Z,101156.00
2023-01-13T16:34:46.835Z,101150.09
2023-01-13T16:37:24.625Z,101160.97
2023-01-13T16:39:52.647Z,101147.91
2023-01-13T16:42:20.095Z,101159.88
2023-01-13T16:44:48.273Z,101151.34
2023-01-13T16:47:16.777Z,101169.25
2023-01-13T16:49:43.848Z,101172.16
2023-01-13T16:52:10.585Z,101196.09
2023-01-13T16:54:37.127Z,101195.44
2023-01-13T16:57:03.687Z,101203.16
2023-01-13T16:59:30.177Z,101195.19
2023-01-13T17:01:56.658Z,101202.19
2023-01-13T17:04:23.552Z,101191.09
2023-01-13T17:06:58.246Z,101203.16
2023-01-13T17:09:27.418Z,101198.78
2023-01-13T17:11:55.058Z,101191.16
2023-01-13T17:14:23.386Z,101213.41
2023-01-13T17:16:52.032Z,101215.03
2023-01-13T17:19:19.293Z,101210.66
2023-01-13T17:21:47.054Z,101232.09
2023-01-13T17:24:14.110Z,101233.34
2023-01-13T17:26:44.023Z,101240.53
2023-01-13T17:29:25.158Z,101230.69
2023-01-13T17:31:53.007Z,101236.38
2023-01-13T17:34:21.215Z,101225.94
2023-01-13T17:36:48.252Z,101234.97
2023-01-13T17:39:19.993Z,101239.97
2023-01-13T17:41:46.730Z,101250.50
2023-01-13T17:44:14.992Z,101252.81
2023-01-13T17:46:42.400Z,101251.09
2023-01-13T17:49:10.964Z,101254.19
2023-01-13T17:51:38.143Z,101264.72
2023-01-13T17:54:04.714Z,101255.59
2023-01-13T17:56:31.163Z,101253.72
2023-01-13T17:58:58.314Z,101251.50
2023-01-13T18:01:26.559Z,101266.34
2023-01-13T18:03:53.043Z,101282.97
2023-01-13T18:06:22.882Z,101277.09
2023-01-13T18:08:50.324Z,101270.94
2023-01-13T18:11:18.933Z,101282.19
2023-01-13T18:13:50.089Z,101281.13
2023-01-13T18:16:18.820Z,101278.47
2023-01-13T18:18:47.099Z,101284.59
2023-01-13T18:21:39.326Z,101293.41
2023-01-13T18:24:29.166Z,101287.16
2023-01-13T18:27:13.871Z,101298.25
2023-01-13T18:29:40.247Z,101282.50
2023-01-13T18:32:08.797Z,101280.50
2023-01-13T18:34:36.195Z,101294.03
2023-01-13T18:37:03.189Z,101293.69
2023-01-13T18:39:29.586Z,101311.72
2023-01-13T18:42:14.637Z,101312.75
2023-01-13T18:44:41.011Z,101311.38
2023-01-13T18:47:07.470Z,101319.78
2023-01-13T18:49:33.828Z,101304.16
2023-01-13T18:52:00.591Z,101316.19
2023-01-13T18:54:27.228Z,101318.44
2023-01-13T18:56:53.633Z,101318.78
2023-01-13T18:59:20.175Z,101330.25
2023-01-13T19:01:46.670Z,101311.06
2023-01-13T19:04:15.885Z,101323.69
2023-01-13T19:06:51.666Z,101326.59
2023-01-13T19:09:26.763Z,101341.53
2023-01-13T19:11:53.447Z,101347.19
2023-01-13T19:14:37.669Z,101349.28
2023-01-13T19:17:09.697Z,101341.16
2023-01-13T19:19:40.507Z,101368.16
2023-01-13T19:22:08.629Z,101358.44
2023-01-13T19:24:35.140Z,101353.13
2023-01-13T19:27:01.770Z,101358.53
2023-01-13T19:29:28.475Z,101370.81
2023-01-13T19:31:54.885Z,101370.47
2023-01-13T19:34:24.085Z,101371.16
2023-01-13T19:36:52.274Z,101371.75
2023-01-13T19:39:19.936Z,101369.41
2023-01-13T19:42:05.216Z,101364.91
2023-01-13T19:44:50.499Z,101374.72
2023-01-13T19:47:17.081Z,101391.44
2023-01-13T19:49:44.277Z,101391.19
2023-01-13T19:52:11.349Z,101383.22
2023-01-13T19:54:37.804Z,101389.56
2023-01-13T19:57:04.605Z,101396.31
2023-01-13T19:59:32.471Z,101400.03
2023-01-13T20:02:03.787Z,101399.53
2023-01-13T20:04:38.292Z,101408.13
2023-01-13T20:07:06.051Z,101406.19
2023-01-13T20:09:34.356Z,101415.81
2023-01-13T20:12:13.065Z,101412.56
2023-01-13T20:14:39.637Z,101418.69
2023-01-13T20:17:06.689Z,101419.50
2023-01-13T20:19:33.413Z,101425.28
2023-01-13T20:21:59.945Z,101428.75
2023-01-13T20:24:26.416Z,101436.28
2023-01-13T20:26:54.262Z,101430.50
2023-01-13T20:29:21.470Z,101421.72
2023-01-13T20:31:48.428Z,101433.63
2023-01-13T20:34:18.125Z,101432.38
2023-01-13T20:36:45.632Z,101419.50
2023-01-13T20:39:17.876Z,101429.81
2023-01-13T20:42:02.981Z,101449.50
2023-01-13T20:44:29.532Z,101455.28
2023-01-13T20:46:57.829Z,101459.72
2023-01-13T20:49:25.946Z,101467.13
2023-01-13T20:51:52.810Z,101469.44
2023-01-13T20:54:19.964Z,101474.63
2023-01-13T20:56:46.445Z,101471.00
2023-01-13T20:59:13.031Z,101466.00
2023-01-13T21:01:39.691Z,101474.69
2023-01-13T21:04:07.004Z,101479.63
2023-01-13T21:06:34.280Z,101489.41
2023-01-13T21:09:00.858Z,101491.38
2023-01-13T21:11:47.433Z,101486.28
2023-01-13T21:14:39.029Z,101494.13
2023-01-13T21:17:06.673Z,101499.59
2023-01-13T21:19:33.440Z,101504.34
2023-01-13T21:21:59.833Z,101499.91
2023-01-13T21:24:26.561Z,101499.00
2023-01-13T21:26:56.659Z,101503.44
2023-01-13T21:29:23.086Z,101515.16
2023-01-13T21:31:49.583Z,101501.22
2023-01-13T21:34:16.132Z,101512.94
2023-01-13T21:36:42.565Z,101516.13
2023-01-13T21:39:09.263Z,101520.34
2023-01-13T21:41:54.442Z,101518.34
2023-01-13T21:44:39.773Z,101528.78
2023-01-13T21:47:33.604Z,101523.91
2023-01-13T21:50:00.907Z,101522.03
2023-01-13T21:52:27.934Z,101527.00
2023-01-13T21:55:13.081Z,101531.53
2023-01-13T21:57:39.498Z,101540.91
2023-01-13T22:00:06.423Z,101541.88
2023-01-13T22:02:32.976Z,101538.16
2023-01-13T22:05:00.926Z,101548.81
2023-01-13T22:07:28.606Z,101541.28
2023-01-13T22:09:55.922Z,101535.50
2023-01-13T22:12:24.303Z,101550.53
2023-01-13T22:14:51.795Z,101553.13
2023-01-13T22:17:20.729Z,101561.47
2023-01-13T22:19:48.395Z,101575.16
2023-01-13T22:22:18.486Z,101569.75
2023-01-13T22:24:47.337Z,101566.19
2023-01-13T22:27:16.669Z,101556.59
2023-01-13T22:29:43.162Z,101574.78
2023-01-13T22:32:09.663Z,101582.38
2023-01-13T22:34:36.081Z,101573.84
2023-01-13T22:37:02.720Z,101574.63
2023-01-13T22:39:29.728Z,101583.41
2023-01-13T22:41:56.223Z,101581.22
2023-01-13T22:44:23.141Z,101569.38
2023-01-13T22:46:49.655Z,101575.00
2023-01-13T22:49:17.073Z,101583.81
2023-01-13T22:51:44.128Z,101572.13
2023-01-13T22:54:11.837Z,101584.97
2023-01-13T22:56:39.049Z,101581.50
2023-01-13T22:59:07.418Z,101585.72
2023-01-13T23:01:35.644Z,101582.34
2023-01-13T23:04:03.181Z,101587.88
2023-01-13T23:06:32.133Z,101588.25
2023-01-13T23:08:59.505Z,101589.88
2023-01-13T23:11:27.838Z,101596.00
2023-01-13T23:14:05.556Z,101597.03
2023-01-13T23:16:35.969Z,101600.97
2023-01-13T23:19:03.284Z,101595.28
2023-01-13T23:21:31.688Z,101597.63
2023-01-13T23:23:58.975Z,101590.44
2023-01-13T23:26:26.588Z,101591.41
2023-01-13T23:28:53.125Z,101589.25
2023-01-13T23:31:21.987Z,101584.41
2023-01-13T23:33:48.991Z,101576.25
2023-01-13T23:36:21.164Z,101569.31
2023-01-13T23:38:47.623Z,101569.91
2023-01-13T23:41:16.382Z,101567.44
2023-01-13T23:43:42.870Z,101563.97
2023-01-13T23:46:13.917Z,101562.19
2023-01-13T23:48:40.423Z,101564.28
2023-01-13T23:51:11.022Z,101571.25
2023-01-13T23:53:40.657Z,101566.03
2023-01-13T23:56:10.385Z,101573.59
2023-01-13T23:58:36.786Z,101569.00
